createdAt,value
2019-05-13T00:00:57.102Z,1.60
2019-05-13T00:03:27.054Z,1.30
2019-05-13T00:05:57.030Z,1.50
2019-05-13T00:08:26.997Z,1.55
2019-05-13T00:10:57.013Z,1.60
2019-05-13T00:13:27.078Z,1.65
2019-05-13T00:15:57.159Z,1.70
2019-05-13T00:18:27.138Z,1.40
2019-05-13T00:20:57.166Z,1.37
2019-05-13T00:23:27.123Z,1.45
2019-05-13T00:25:57.228Z,1.32
2019-05-13T00:28:27.260Z,1.27
2019-05-13T00:30:57.369Z,2.17
2019-05-13T00:33:27.399Z,1.70
2019-05-13T00:35:57.401Z,1.52
2019-05-13T00:38:27.395Z,1.55
2019-05-13T00:40:57.462Z,1.57
2019-05-13T00:43:27.423Z,1.40
2019-05-13T00:45:57.426Z,1.70
2019-05-13T00:48:29.704Z,1.30
2019-05-13T00:50:59.100Z,1.47
2019-05-13T00:53:29.091Z,1.40
2019-05-13T00:55:59.110Z,1.22
2019-05-13T00:58:29.164Z,1.43
2019-05-13T01:00:59.190Z,1.47
2019-05-13T01:03:29.182Z,1.50
2019-05-13T01:05:59.186Z,1.50
2019-05-13T01:08:29.139Z,1.50
2019-05-13T01:10:59.130Z,1.40
2019-05-13T01:13:29.086Z,1.90
2019-05-13T01:15:59.074Z,1.30
2019-05-13T01:18:29.067Z,1.30
2019-05-13T01:20:59.046Z,1.20
2019-05-13T01:23:29.092Z,1.35
2019-05-13T01:25:58.995Z,1.70
2019-05-13T01:28:28.962Z,1.20
2019-05-13T01:30:59.031Z,1.40
2019-05-13T01:33:28.995Z,1.55
2019-05-13T01:35:59.046Z,1.42
2019-05-13T01:38:29.035Z,1.47
2019-05-13T01:40:59.026Z,1.02
2019-05-13T01:43:29.082Z,1.72
2019-05-13T01:45:59.090Z,1.10
2019-05-13T01:48:29.139Z,1.20
2019-05-13T01:50:59.143Z,1.20
2019-05-13T01:53:30.170Z,1.10
2019-05-13T01:56:00.282Z,1.30
2019-05-13T01:58:30.281Z,1.10
2019-05-13T02:01:00.230Z,1.17
2019-05-13T02:03:30.201Z,1.10
2019-05-13T02:06:03.536Z,1.00
2019-05-13T02:08:33.672Z,1.00
2019-05-13T02:11:04.593Z,1.00
2019-05-13T02:13:34.755Z,1.17
2019-05-13T02:16:04.743Z,1.20
2019-05-13T02:18:34.786Z,1.20
2019-05-13T02:21:05.651Z,1.40
2019-05-13T02:23:35.846Z,1.07
2019-05-13T02:26:05.808Z,1.40
2019-05-13T02:28:35.867Z,0.90
2019-05-13T02:31:05.819Z,1.10
2019-05-13T02:33:35.815Z,1.30
2019-05-13T02:36:05.799Z,1.35
2019-05-13T02:38:36.040Z,0.90
2019-05-13T02:41:06.094Z,1.20
2019-05-13T02:43:37.422Z,1.35
2019-05-13T02:46:07.794Z,1.10
2019-05-13T02:48:37.841Z,1.27
2019-05-13T02:51:12.301Z,1.17
2019-05-13T02:53:43.713Z,1.00
2019-05-13T02:56:12.872Z,1.10
2019-05-13T02:58:43.111Z,1.22
2019-05-13T03:01:13.164Z,1.20
2019-05-13T03:03:44.396Z,1.37
2019-05-13T03:06:14.683Z,1.22
2019-05-13T03:08:49.898Z,1.20
2019-05-13T03:11:16.396Z,1.40
2019-05-13T03:13:46.408Z,1.30
2019-05-13T03:16:35.310Z,1.30
2019-05-13T03:19:05.300Z,1.65
2019-05-13T03:21:35.403Z,1.27
2019-05-13T03:24:05.603Z,1.42
2019-05-13T03:26:35.577Z,1.32
2019-05-13T03:29:05.647Z,1.40
2019-05-13T03:31:36.458Z,1.20
2019-05-13T03:34:07.625Z,1.35
2019-05-13T03:36:45.133Z,1.32
2019-05-13T03:39:14.614Z,1.30
2019-05-13T03:41:42.570Z,1.50
2019-05-13T03:44:13.753Z,1.10
2019-05-13T03:46:43.900Z,1.40
2019-05-13T03:49:14.388Z,1.77
2019-05-13T03:51:46.959Z,1.55
2019-05-13T03:54:17.071Z,1.30
2019-05-13T03:56:47.041Z,1.40
2019-05-13T03:59:18.177Z,1.40
2019-05-13T04:01:48.236Z,1.37
2019-05-13T04:04:18.295Z,1.27
2019-05-13T04:06:48.302Z,1.45
2019-05-13T04:09:27.632Z,1.77
2019-05-13T04:11:52.570Z,1.55
2019-05-13T04:14:22.884Z,1.32
2019-05-13T04:16:53.615Z,1.50
2019-05-13T04:19:24.807Z,2.00
2019-05-13T04:21:54.759Z,1.57
2019-05-13T04:24:24.833Z,1.20
2019-05-13T04:26:54.929Z,1.60
2019-05-13T04:29:25.046Z,1.75
2019-05-13T04:31:55.075Z,1.30
2019-05-13T04:34:26.143Z,1.60
2019-05-13T04:36:58.361Z,1.98
2019-05-13T04:39:41.742Z,1.30
2019-05-13T04:42:02.340Z,1.47
2019-05-13T04:44:32.659Z,1.60
2019-05-13T04:47:03.851Z,1.25
2019-05-13T04:49:34.258Z,1.10
2019-05-13T04:52:04.233Z,1.15
2019-05-13T04:54:34.403Z,0.97
2019-05-13T04:57:04.368Z,1.62
2019-05-13T04:59:40.053Z,1.52
2019-05-13T05:02:57.399Z,1.32
2019-05-13T05:05:52.484Z,1.30
2019-05-13T05:09:12.683Z,0.95
2019-05-13T05:12:31.869Z,1.00
2019-05-13T05:15:52.348Z,1.02
2019-05-13T05:18:52.690Z,1.00
2019-05-13T05:21:26.567Z,1.40
2019-05-13T05:24:41.395Z,1.10
2019-05-13T05:27:48.663Z,1.10
2019-05-13T05:30:54.746Z,1.87
2019-05-13T05:34:12.044Z,1.55
2019-05-13T05:36:57.403Z,1.10
2019-05-13T05:39:27.767Z,0.85
2019-05-13T05:41:58.265Z,1.22
2019-05-13T05:44:32.065Z,0.95
2019-05-13T05:47:02.783Z,0.90
2019-05-13T05:49:33.015Z,1.10
2019-05-13T05:52:06.336Z,1.10
2019-05-13T05:54:37.400Z,0.93
2019-05-13T05:57:07.852Z,0.80
2019-05-13T05:59:37.799Z,0.80
2019-05-13T06:02:08.435Z,0.93
2019-05-13T06:04:38.456Z,0.90
2019-05-13T06:07:08.487Z,0.93
2019-05-13T06:09:38.496Z,0.85
2019-05-13T06:12:08.578Z,1.15
2019-05-13T06:14:38.574Z,0.88
2019-05-13T06:17:08.615Z,0.90
2019-05-13T06:19:38.626Z,2.30
2019-05-13T06:22:08.622Z,0.88
2019-05-13T06:24:38.716Z,1.27
2019-05-13T06:27:08.697Z,0.85
2019-05-13T06:29:38.824Z,1.00
2019-05-13T06:32:21.209Z,0.80
2019-05-13T06:34:41.502Z,0.90
2019-05-13T06:37:11.620Z,0.90
2019-05-13T06:39:42.765Z,1.00
2019-05-13T06:42:12.838Z,0.90
2019-05-13T06:44:42.833Z,1.00
2019-05-13T06:47:12.807Z,0.90
2019-05-13T06:49:43.021Z,0.98
2019-05-13T06:52:13.195Z,0.80
2019-05-13T06:54:43.190Z,0.90
2019-05-13T06:57:13.637Z,0.72
2019-05-13T06:59:43.788Z,0.60
2019-05-13T07:02:13.776Z,0.70
2019-05-13T07:04:43.781Z,0.70
2019-05-13T07:07:17.334Z,0.90
2019-05-13T07:09:46.907Z,0.60
2019-05-13T07:12:16.974Z,0.70
2019-05-13T07:14:47.259Z,0.75
2019-05-13T07:17:17.223Z,0.78
2019-05-13T07:19:47.211Z,0.93
2019-05-13T07:22:17.195Z,0.62
2019-05-13T07:24:47.250Z,0.60
2019-05-13T07:27:17.235Z,0.60
2019-05-13T07:29:47.340Z,0.72
2019-05-13T07:32:17.349Z,0.88
2019-05-13T07:34:47.408Z,0.60
2019-05-13T07:37:17.541Z,0.62
2019-05-13T07:39:47.527Z,0.65
2019-05-13T07:42:17.514Z,1.20
2019-05-13T07:44:47.715Z,0.70
2019-05-13T07:47:17.762Z,0.65
2019-05-13T07:49:47.799Z,0.70
2019-05-13T07:52:17.837Z,0.73
2019-05-13T07:54:47.902Z,0.70
2019-05-13T07:57:17.902Z,0.88
2019-05-13T07:59:47.948Z,0.80
2019-05-13T08:02:17.940Z,0.72
2019-05-13T08:04:49.530Z,1.00
2019-05-13T08:07:22.628Z,0.60
2019-05-13T08:09:55.707Z,0.70
2019-05-13T08:12:24.136Z,1.07
2019-05-13T08:14:54.222Z,0.98
2019-05-13T08:17:24.238Z,1.00
2019-05-13T08:19:54.267Z,0.88
2019-05-13T08:22:24.958Z,0.93
2019-05-13T08:24:55.014Z,0.80
2019-05-13T08:27:30.401Z,0.98
2019-05-13T08:29:56.687Z,0.80
2019-05-13T08:32:26.859Z,0.60
2019-05-13T08:35:01.482Z,0.90
2019-05-13T08:37:28.624Z,0.80
2019-05-13T08:40:01.342Z,0.70
2019-05-13T08:42:32.283Z,0.70
2019-05-13T08:45:02.263Z,0.70
2019-05-13T08:47:32.500Z,0.80
2019-05-13T08:50:04.491Z,0.70
2019-05-13T08:52:34.866Z,0.80
2019-05-13T08:55:05.394Z,0.80
2019-05-13T08:57:35.639Z,0.80
2019-05-13T09:00:06.451Z,0.68
2019-05-13T09:02:36.588Z,0.75
2019-05-13T09:05:08.088Z,0.78
2019-05-13T09:07:38.082Z,0.80
2019-05-13T09:10:08.151Z,0.80
2019-05-13T09:12:40.988Z,0.80
2019-05-13T09:15:11.899Z,0.70
2019-05-13T09:32:42.703Z,0.70
2019-05-13T09:35:12.920Z,0.80
2019-05-13T09:37:43.076Z,0.60
2019-05-13T09:42:49.144Z,0.50
2019-05-13T09:45:14.104Z,0.40
2019-05-13T09:47:44.279Z,0.60
2019-05-13T09:50:28.555Z,0.67
2019-05-13T09:52:46.055Z,0.40
2019-05-13T09:55:26.409Z,0.60
2019-05-13T09:57:52.277Z,0.50
2019-05-13T10:00:21.754Z,0.57
2019-05-13T10:02:52.057Z,0.60
2019-05-13T10:05:22.447Z,0.60
2019-05-13T10:07:52.620Z,0.60
2019-05-13T10:10:22.841Z,0.30
2019-05-13T10:13:07.880Z,0.40
2019-05-13T10:15:24.648Z,0.83
2019-05-13T10:17:54.671Z,0.40
2019-05-13T10:20:45.676Z,0.87
2019-05-13T10:23:15.767Z,0.60
2019-05-13T10:25:47.605Z,1.70
2019-05-13T10:28:17.707Z,0.87
2019-05-13T10:30:47.771Z,1.00
2019-05-13T10:33:17.780Z,0.60
2019-05-13T10:35:47.881Z,1.47
2019-05-13T10:38:17.987Z,0.60
2019-05-13T10:40:47.999Z,0.60
2019-05-13T10:43:31.165Z,0.67
2019-05-13T10:45:52.327Z,1.23
2019-05-13T10:48:22.167Z,0.90
2019-05-13T10:50:53.133Z,0.70
2019-05-13T10:53:23.552Z,0.60
2019-05-13T10:55:53.687Z,0.60
2019-05-13T10:58:23.720Z,0.60
2019-05-13T11:00:54.181Z,0.47
2019-05-13T11:03:24.472Z,0.50
2019-05-13T11:05:55.593Z,0.40
2019-05-13T11:08:25.839Z,0.70
2019-05-13T11:10:55.921Z,0.70
2019-05-13T11:13:45.770Z,0.80
2019-05-13T11:15:58.786Z,0.80
2019-05-13T11:18:29.048Z,0.63
2019-05-13T11:21:01.756Z,0.50
2019-05-13T11:23:32.153Z,0.63
2019-05-13T11:26:03.297Z,0.40
2019-05-13T11:28:33.837Z,0.50
2019-05-13T11:31:03.877Z,0.50
2019-05-13T11:33:33.895Z,0.80
2019-05-13T11:36:03.996Z,0.47
2019-05-13T11:38:34.064Z,0.50
2019-05-13T11:41:04.176Z,0.70
2019-05-13T11:43:34.240Z,0.43
2019-05-13T11:46:05.421Z,0.60
2019-05-13T11:48:35.486Z,0.90
2019-05-13T11:51:05.492Z,0.80
2019-05-13T11:53:37.734Z,0.60
2019-05-13T11:56:07.336Z,0.83
2019-05-13T11:58:37.394Z,0.40
2019-05-13T12:01:07.575Z,0.50
2019-05-13T12:03:37.620Z,0.63
2019-05-13T12:06:07.821Z,0.80
2019-05-13T12:08:37.923Z,0.50
2019-05-13T12:11:08.007Z,0.30
2019-05-13T12:13:38.370Z,0.40
2019-05-13T12:16:08.375Z,0.67
2019-05-13T12:18:43.458Z,0.70
2019-05-13T12:21:12.328Z,0.50
2019-05-13T12:23:42.900Z,0.40
2019-05-13T12:26:13.616Z,0.67
2019-05-13T12:28:43.948Z,0.50
2019-05-13T12:31:15.352Z,0.80
2019-05-13T12:33:45.416Z,0.70
2019-05-13T12:36:18.686Z,1.00
2019-05-13T12:38:48.379Z,0.43
2019-05-13T12:41:18.459Z,0.57
2019-05-13T12:43:48.523Z,0.60
2019-05-13T12:46:18.618Z,0.50
2019-05-13T12:48:49.836Z,0.60
2019-05-13T12:51:20.115Z,0.50
2019-05-13T12:53:52.716Z,1.00
2019-05-13T12:56:24.245Z,0.70
2019-05-13T12:58:54.316Z,0.63
2019-05-13T13:01:24.481Z,0.60
2019-05-13T13:03:54.632Z,0.63
2019-05-13T13:06:35.281Z,0.80
2019-05-13T13:08:56.732Z,1.27
2019-05-13T13:11:27.180Z,0.80
2019-05-13T13:13:59.987Z,0.50
2019-05-13T13:16:34.478Z,0.50
2019-05-13T13:19:02.638Z,0.60
2019-05-13T13:21:37.350Z,0.67
2019-05-13T13:24:04.906Z,0.87
2019-05-13T13:26:36.225Z,1.03
2019-05-13T13:29:06.467Z,0.87
2019-05-13T13:31:36.774Z,0.80
2019-05-13T13:34:12.528Z,0.83
2019-05-13T13:36:39.053Z,0.50
2019-05-13T13:39:09.519Z,0.80
2019-05-13T13:41:43.427Z,0.90
2019-05-13T13:44:12.410Z,0.80
2019-05-13T13:46:49.081Z,0.90
2019-05-13T13:49:14.831Z,0.90
2019-05-13T13:51:45.217Z,0.70
2019-05-13T13:54:15.350Z,0.60
2019-05-13T13:56:45.420Z,0.87
2019-05-13T13:59:15.809Z,1.03
2019-05-13T14:01:45.901Z,0.90
2019-05-13T14:04:16.718Z,0.67
2019-05-13T14:09:22.395Z,0.77
2019-05-13T14:11:51.706Z,0.60
2019-05-13T14:14:21.814Z,0.97
2019-05-13T14:16:52.092Z,0.70
2019-05-13T14:19:22.196Z,0.90
2019-05-13T14:21:52.765Z,0.53
2019-05-13T14:24:24.219Z,0.50
2019-05-13T14:26:54.376Z,0.67
2019-05-13T14:29:37.460Z,0.67
2019-05-13T14:31:56.480Z,0.50
2019-05-13T14:34:26.563Z,0.70
2019-05-13T14:36:56.699Z,0.80
2019-05-13T14:39:26.756Z,0.60
2019-05-13T14:41:56.952Z,1.33
2019-05-13T14:44:27.105Z,0.50
2019-05-13T14:46:57.257Z,0.87
2019-05-13T14:49:27.459Z,0.50
2019-05-13T14:51:57.578Z,0.40
2019-05-13T14:54:27.664Z,0.60
2019-05-13T14:56:57.941Z,0.43
2019-05-13T14:59:28.020Z,0.70
2019-05-13T15:01:58.129Z,0.83
2019-05-13T15:04:28.281Z,0.57
2019-05-13T15:06:58.341Z,0.70
2019-05-13T15:09:28.561Z,0.90
2019-05-13T15:11:58.693Z,0.93
2019-05-13T15:45:36.044Z,1.03
2019-05-13T15:50:13.790Z,2.40
2019-05-13T15:52:43.915Z,1.33
2019-05-13T15:55:12.371Z,0.50
2019-05-13T16:03:23.237Z,0.80
2019-05-13T16:05:54.536Z,0.80
2019-05-13T16:08:25.791Z,1.43
2019-05-13T16:10:56.959Z,0.60
2019-05-13T16:13:28.228Z,0.87
2019-05-13T16:16:01.503Z,0.77
2019-05-13T16:18:32.448Z,1.17
2019-05-13T16:21:04.764Z,0.90
2019-05-13T16:23:35.935Z,1.20
2019-05-13T16:26:07.151Z,1.10
2019-05-13T16:28:41.692Z,0.80
2019-05-13T16:31:11.945Z,0.80
2019-05-13T16:33:43.330Z,0.80
2019-05-13T16:36:14.488Z,0.77
2019-05-13T16:38:45.702Z,1.00
2019-05-13T16:41:17.227Z,1.00
2019-05-13T16:43:48.546Z,1.13
2019-05-13T16:46:21.465Z,0.70
2019-05-13T16:48:53.196Z,0.87
2019-05-13T16:51:24.507Z,0.90
2019-05-13T16:53:56.011Z,0.97
2019-05-13T16:56:30.356Z,1.00
2019-05-13T16:59:01.563Z,1.03
2019-05-13T17:01:33.054Z,0.97
2019-05-13T17:04:04.273Z,1.07
2019-05-13T17:06:35.504Z,0.87
2019-05-13T17:09:07.882Z,0.83
2019-05-13T17:11:41.328Z,1.00
2019-05-13T17:14:12.189Z,0.70
2019-05-13T17:16:43.387Z,0.80
2019-05-13T17:19:14.653Z,0.97
2019-05-13T17:21:45.803Z,0.83
2019-05-13T17:24:16.987Z,0.60
2019-05-13T17:26:48.152Z,0.90
2019-05-13T17:29:21.139Z,1.27
2019-05-13T17:31:52.501Z,1.00
2019-05-13T17:34:23.703Z,0.70
2019-05-13T17:36:54.916Z,0.80
2019-05-13T17:39:26.082Z,0.80
2019-05-13T17:41:57.873Z,0.93
2019-05-13T17:44:31.559Z,0.77
2019-05-13T17:47:02.207Z,0.87
2019-05-13T17:49:33.508Z,1.43
2019-05-13T17:52:04.691Z,1.23
2019-05-13T17:54:35.879Z,1.00
2019-05-13T17:57:07.037Z,1.10
2019-05-13T17:59:38.304Z,0.87
2019-05-13T18:02:11.605Z,1.17
2019-05-13T18:04:42.445Z,1.13
2019-05-13T18:07:13.561Z,0.90
2019-05-13T18:09:44.749Z,0.80
2019-05-13T18:12:15.902Z,1.00
2019-05-13T18:14:47.085Z,0.87
2019-05-13T18:17:18.357Z,1.20
2019-05-13T18:19:51.487Z,1.80
2019-05-13T18:22:22.421Z,1.50
2019-05-13T18:24:53.599Z,1.40
2019-05-13T18:27:24.752Z,0.90
2019-05-13T18:29:55.947Z,1.00
2019-05-13T18:32:27.164Z,0.80
2019-05-13T18:34:58.379Z,0.70
2019-05-13T18:37:31.548Z,1.03
2019-05-13T18:40:02.736Z,1.10
2019-05-13T18:42:35.270Z,1.00
2019-05-13T18:45:07.168Z,1.00
2019-05-13T18:47:38.401Z,1.73
2019-05-13T18:50:11.539Z,1.10
2019-05-13T18:52:43.241Z,0.90
2019-05-13T18:55:15.901Z,1.30
2019-05-13T18:57:47.065Z,1.07
2019-05-13T19:00:18.268Z,1.10
2019-05-13T19:02:49.420Z,1.17
2019-05-13T19:05:21.357Z,0.80
2019-05-13T19:07:52.547Z,1.03
2019-05-13T19:10:24.998Z,1.37
2019-05-13T19:12:57.972Z,1.27
2019-05-13T19:15:31.570Z,0.97
2019-05-13T19:18:02.639Z,0.90
2019-05-13T19:20:34.364Z,1.13
2019-05-13T19:23:08.266Z,0.93
2019-05-13T19:25:42.775Z,0.90
2019-05-13T19:28:14.426Z,1.07
2019-05-13T19:30:46.851Z,0.90
2019-05-13T19:33:18.473Z,0.97
2019-05-13T19:35:51.838Z,1.13
2019-05-13T19:38:22.900Z,1.17
2019-05-13T19:40:54.279Z,0.80
2019-05-13T19:43:25.531Z,0.90
2019-05-13T19:45:56.712Z,0.90
2019-05-13T19:48:27.969Z,1.00
2019-05-13T19:51:01.536Z,1.10
2019-05-13T19:53:32.421Z,1.10
2019-05-13T19:56:03.592Z,1.80
2019-05-13T19:58:34.760Z,2.00
2019-05-13T20:01:05.924Z,1.90
2019-05-13T20:03:37.195Z,2.70
2019-05-13T20:06:09.338Z,2.97
2019-05-13T20:08:41.255Z,3.57
2019-05-13T20:11:12.704Z,1.90
2019-05-13T20:13:43.845Z,1.43
2019-05-13T20:16:15.075Z,1.10
2019-05-13T20:18:46.261Z,1.03
2019-05-13T20:21:17.996Z,3.00
2019-05-13T20:23:49.249Z,1.30
2019-05-13T20:26:21.682Z,0.83
2019-05-13T20:28:52.962Z,1.47
2019-05-13T20:31:24.122Z,1.07
2019-05-13T20:33:55.321Z,1.37
2019-05-13T20:36:35.083Z,1.73
2019-05-13T20:39:07.753Z,1.50
2019-05-13T20:41:41.241Z,1.30
2019-05-13T20:44:11.994Z,1.33
2019-05-13T20:46:43.294Z,1.20
2019-05-13T20:49:14.535Z,1.20
2019-05-13T20:51:46.761Z,1.13
2019-05-13T20:54:17.972Z,1.50
2019-05-13T20:56:51.639Z,1.20
2019-05-13T20:59:22.026Z,1.13
2019-05-13T21:01:54.264Z,1.07
2019-05-13T21:04:25.455Z,0.90
2019-05-13T21:06:56.623Z,1.33
2019-05-13T21:09:27.840Z,1.67
2019-05-13T21:12:01.504Z,1.03
2019-05-13T21:14:32.180Z,1.50
2019-05-13T21:17:05.877Z,1.40
2019-05-13T21:19:42.605Z,0.90
2019-05-13T21:22:13.085Z,1.20
2019-05-13T21:24:44.628Z,1.30
2019-05-13T21:27:16.117Z,1.33
2019-05-13T21:29:48.749Z,1.40
2019-05-13T21:32:23.996Z,1.47
2019-05-13T21:34:55.810Z,1.67
2019-05-13T21:37:27.271Z,1.33
2019-05-13T21:39:58.438Z,1.40
2019-05-13T21:42:29.607Z,1.40
2019-05-13T21:45:03.124Z,1.37
2019-05-13T21:47:34.529Z,1.70
2019-05-13T21:50:07.357Z,1.00
2019-05-13T21:52:38.537Z,1.10
2019-05-13T21:55:11.348Z,1.10
2019-05-13T21:57:42.746Z,1.23
2019-05-13T22:00:23.472Z,1.00
2019-05-13T22:02:53.658Z,1.23
2019-05-13T22:05:24.918Z,1.30
2019-05-13T22:07:56.065Z,1.40
2019-05-13T22:10:27.354Z,1.13
2019-05-13T22:12:58.556Z,1.40
2019-05-13T22:15:32.158Z,1.70
2019-05-13T22:18:03.255Z,1.03
2019-05-13T22:20:47.371Z,1.80
2019-05-13T22:23:07.375Z,1.30
2019-05-13T22:25:38.588Z,1.27
2019-05-13T22:28:11.729Z,1.10
2019-05-13T22:30:42.691Z,1.60
2019-05-13T22:33:13.870Z,1.80
2019-05-13T22:35:45.038Z,1.30
2019-05-13T22:38:16.218Z,1.47
2019-05-13T22:40:47.428Z,1.60
2019-05-13T22:43:21.174Z,1.43
2019-05-13T22:45:52.466Z,1.20
2019-05-13T22:48:23.670Z,1.40
2019-05-13T22:50:54.924Z,1.33
2019-05-13T22:53:26.098Z,1.17
2019-05-13T22:55:57.264Z,1.10
2019-05-13T22:58:28.552Z,1.20
2019-05-13T23:01:02.235Z,1.30
2019-05-13T23:03:32.674Z,1.30
2019-05-13T23:06:03.890Z,1.83
2019-05-13T23:08:35.040Z,1.50
2019-05-13T23:11:06.204Z,1.20
2019-05-13T23:13:37.490Z,1.23
2019-05-13T23:16:11.557Z,1.17
2019-05-13T23:18:42.779Z,1.30
2019-05-13T23:21:13.910Z,1.50
2019-05-13T23:23:45.034Z,1.23
2019-05-13T23:26:16.239Z,1.20
2019-05-13T23:28:47.360Z,1.23
2019-05-13T23:31:18.520Z,1.33
2019-05-13T23:33:49.719Z,1.60
2019-05-13T23:36:21.171Z,1.60
2019-05-13T23:38:52.364Z,1.10
2019-05-13T23:41:23.534Z,1.00
2019-05-13T23:43:55.737Z,1.60
2019-05-13T23:46:26.859Z,1.37
2019-05-13T23:48:58.020Z,1.10
2019-05-13T23:51:29.205Z,1.40
2019-05-13T23:54:01.598Z,1.37
2019-05-13T23:56:32.945Z,0.97
2019-05-13T23:59:04.091Z,1.20
